sensor_id;sensor_type;location;lat;lon;timestamp;temperature;humidity
10468;DHT22;5281;48.878;9.394;2022-10-19T00:01:06;14.40;99.90
10468;DHT22;5281;48.878;9.394;2022-10-19T00:03:34;14.30;99.90
10468;DHT22;5281;48.878;9.394;2022-10-19T00:06:12;14.30;99.90
10468;DHT22;5281;48.878;9.394;2022-10-19T00:08:39;14.20;99.90
10468;DHT22;5281;48.878;9.394;2022-10-19T00:11:06;14.30;99.90
10468;DHT22;5281;48.878;9.394;2022-10-19T00:13:33;14.30;99.90
10468;DHT22;5281;48.878;9.394;2022-10-19T00:16:00;14.30;99.90
10468;DHT22;5281;48.878;9.394;2022-10-19T00:18:27;14.30;99.90
10468;DHT22;5281;48.878;9.394;2022-10-19T00:21:02;14.30;99.90
10468;DHT22;5281;48.878;9.394;2022-10-19T00:23:31;14.40;99.90
10468;DHT22;5281;48.878;9.394;2022-10-19T00:25:58;14.50;99.90
10468;DHT22;5281;48.878;9.394;2022-10-19T00:28:25;14.60;99.90
10468;DHT22;5281;48.878;9.394;2022-10-19T00:30:52;14.70;99.90
10468;DHT22;5281;48.878;9.394;2022-10-19T00:33:19;14.90;99.90
10468;DHT22;5281;48.878;9.394;2022-10-19T00:35:47;14.90;99.90
10468;DHT22;5281;48.878;9.394;2022-10-19T00:38:15;15.10;99.90
10468;DHT22;5281;48.878;9.394;2022-10-19T00:40:43;15.20;99.90
10468;DHT22;5281;48.878;9.394;2022-10-19T00:43:13;15.20;99.90
10468;DHT22;5281;48.878;9.394;2022-10-19T00:45:40;15.20;99.90
10468;DHT22;5281;48.878;9.394;2022-10-19T00:48:08;15.10;99.90
10468;DHT22;5281;48.878;9.394;2022-10-19T00:50:36;15.00;99.90
10468;DHT22;5281;48.878;9.394;2022-10-19T00:53:03;15.00;99.90
10468;DHT22;5281;48.878;9.394;2022-10-19T00:55:30;14.90;99.90
10468;DHT22;5281;48.878;9.394;2022-10-19T00:57:59;14.80;99.90
10468;DHT22;5281;48.878;9.394;2022-10-19T01:00:27;14.80;99.90
10468;DHT22;5281;48.878;9.394;2022-10-19T01:02:54;14.80;99.90
10468;DHT22;5281;48.878;9.394;2022-10-19T01:05:23;14.80;99.90
10468;DHT22;5281;48.878;9.394;2022-10-19T01:07:51;14.80;99.90
10468;DHT22;5281;48.878;9.394;2022-10-19T01:10:23;14.80;99.90
10468;DHT22;5281;48.878;9.394;2022-10-19T01:13:09;14.90;99.90
10468;DHT22;5281;48.878;9.394;2022-10-19T01:15:45;15.00;99.90
10468;DHT22;5281;48.878;9.394;2022-10-19T01:18:19;15.10;99.90
10468;DHT22;5281;48.878;9.394;2022-10-19T01:21:09;15.20;99.90
10468;DHT22;5281;48.878;9.394;2022-10-19T01:30:02;15.50;99.90
10468;DHT22;5281;48.878;9.394;2022-10-19T01:32:39;15.60;99.90
10468;DHT22;5281;48.878;9.394;2022-10-19T01:35:11;15.70;99.90
10468;DHT22;5281;48.878;9.394;2022-10-19T01:37:47;15.60;99.90
10468;DHT22;5281;48.878;9.394;2022-10-19T01:40:23;15.50;99.90
10468;DHT22;5281;48.878;9.394;2022-10-19T01:42:58;15.40;99.90
10468;DHT22;5281;48.878;9.394;2022-10-19T01:45:30;15.30;99.90
10468;DHT22;5281;48.878;9.394;2022-10-19T01:48:03;15.30;99.90
10468;DHT22;5281;48.878;9.394;2022-10-19T01:50:36;15.40;99.90
10468;DHT22;5281;48.878;9.394;2022-10-19T01:53:06;15.40;99.90
10468;DHT22;5281;48.878;9.394;2022-10-19T01:55:36;15.40;99.90
10468;DHT22;5281;48.878;9.394;2022-10-19T01:58:07;15.40;99.90
10468;DHT22;5281;48.878;9.394;2022-10-19T02:00:38;15.40;99.90
10468;DHT22;5281;48.878;9.394;2022-10-19T02:03:08;15.40;99.90
10468;DHT22;5281;48.878;9.394;2022-10-19T02:05:36;15.50;99.90
10468;DHT22;5281;48.878;9.394;2022-10-19T02:08:09;15.50;99.90
10468;DHT22;5281;48.878;9.394;2022-10-19T02:10:39;15.60;99.90
10468;DHT22;5281;48.878;9.394;2022-10-19T02:13:08;15.60;99.90
10468;DHT22;5281;48.878;9.394;2022-10-19T02:15:40;15.70;99.90
10468;DHT22;5281;48.878;9.394;2022-10-19T02:18:10;15.70;99.90
10468;DHT22;5281;48.878;9.394;2022-10-19T02:20:38;15.70;99.90
10468;DHT22;5281;48.878;9.394;2022-10-19T02:23:06;15.80;99.90
10468;DHT22;5281;48.878;9.394;2022-10-19T02:25:33;15.70;99.90
10468;DHT22;5281;48.878;9.394;2022-10-19T02:28:01;15.80;99.90
10468;DHT22;5281;48.878;9.394;2022-10-19T02:30:28;15.70;99.90
10468;DHT22;5281;48.878;9.394;2022-10-19T02:32:56;15.70;99.90
10468;DHT22;5281;48.878;9.394;2022-10-19T02:35:23;15.70;99.90
10468;DHT22;5281;48.878;9.394;2022-10-19T02:37:50;15.80;99.90
10468;DHT22;5281;48.878;9.394;2022-10-19T02:40:18;15.80;99.90
10468;DHT22;5281;48.878;9.394;2022-10-19T02:42:51;15.80;99.90
10468;DHT22;5281;48.878;9.394;2022-10-19T02:45:22;15.70;99.90
10468;DHT22;5281;48.878;9.394;2022-10-19T02:47:54;15.70;99.90
10468;DHT22;5281;48.878;9.394;2022-10-19T02:50:24;15.80;99.90
10468;DHT22;5281;48.878;9.394;2022-10-19T02:52:51;15.60;99.90
10468;DHT22;5281;48.878;9.394;2022-10-19T02:55:18;15.50;99.90
10468;DHT22;5281;48.878;9.394;2022-10-19T02:57:45;15.30;99.90
10468;DHT22;5281;48.878;9.394;2022-10-19T03:00:12;15.20;99.90
10468;DHT22;5281;48.878;9.394;2022-10-19T03:02:39;15.10;99.90
10468;DHT22;5281;48.878;9.394;2022-10-19T03:05:06;15.00;99.90
10468;DHT22;5281;48.878;9.394;2022-10-19T03:07:35;15.00;99.90
10468;DHT22;5281;48.878;9.394;2022-10-19T03:10:02;15.00;99.90
10468;DHT22;5281;48.878;9.394;2022-10-19T03:12:29;15.00;99.90
10468;DHT22;5281;48.878;9.394;2022-10-19T03:14:56;15.00;99.90
10468;DHT22;5281;48.878;9.394;2022-10-19T03:17:23;15.00;99.90
10468;DHT22;5281;48.878;9.394;2022-10-19T03:19:49;14.90;99.90
10468;DHT22;5281;48.878;9.394;2022-10-19T03:22:16;14.80;99.90
10468;DHT22;5281;48.878;9.394;2022-10-19T03:24:44;14.60;99.90
10468;DHT22;5281;48.878;9.394;2022-10-19T03:27:11;14.60;99.90
10468;DHT22;5281;48.878;9.394;2022-10-19T03:29:38;14.50;99.90
10468;DHT22;5281;48.878;9.394;2022-10-19T03:32:05;14.60;99.90
10468;DHT22;5281;48.878;9.394;2022-10-19T03:34:32;14.60;99.90
10468;DHT22;5281;48.878;9.394;2022-10-19T03:36:58;14.60;99.90
10468;DHT22;5281;48.878;9.394;2022-10-19T03:39:25;14.70;99.90
10468;DHT22;5281;48.878;9.394;2022-10-19T03:41:53;14.60;99.90
10468;DHT22;5281;48.878;9.394;2022-10-19T03:44:20;14.60;99.90
10468;DHT22;5281;48.878;9.394;2022-10-19T03:46:47;14.60;99.90
10468;DHT22;5281;48.878;9.394;2022-10-19T03:49:14;14.60;99.90
10468;DHT22;5281;48.878;9.394;2022-10-19T03:51:41;14.60;99.90
10468;DHT22;5281;48.878;9.394;2022-10-19T03:54:11;14.50;99.90
10468;DHT22;5281;48.878;9.394;2022-10-19T03:56:39;14.50;99.90
10468;DHT22;5281;48.878;9.394;2022-10-19T03:59:10;14.40;99.90
10468;DHT22;5281;48.878;9.394;2022-10-19T04:01:40;14.40;99.90
10468;DHT22;5281;48.878;9.394;2022-10-19T04:04:10;14.30;99.90
10468;DHT22;5281;48.878;9.394;2022-10-19T04:06:38;14.30;99.90
10468;DHT22;5281;48.878;9.394;2022-10-19T04:09:07;14.30;99.90
10468;DHT22;5281;48.878;9.394;2022-10-19T04:11:34;14.20;99.90
10468;DHT22;5281;48.878;9.394;2022-10-19T04:14:01;14.30;99.90
10468;DHT22;5281;48.878;9.394;2022-10-19T04:16:30;14.10;99.90
10468;DHT22;5281;48.878;9.394;2022-10-19T04:18:57;14.10;99.90
10468;DHT22;5281;48.878;9.394;2022-10-19T04:21:26;14.10;99.90
10468;DHT22;5281;48.878;9.394;2022-10-19T04:23:56;14.20;99.90
10468;DHT22;5281;48.878;9.394;2022-10-19T04:26:23;14.20;99.90
10468;DHT22;5281;48.878;9.394;2022-10-19T04:28:50;14.10;99.90
10468;DHT22;5281;48.878;9.394;2022-10-19T04:31:17;14.10;99.90
10468;DHT22;5281;48.878;9.394;2022-10-19T04:33:45;14.00;99.90
10468;DHT22;5281;48.878;9.394;2022-10-19T04:36:12;14.10;99.90
10468;DHT22;5281;48.878;9.394;2022-10-19T04:38:39;14.00;99.90
10468;DHT22;5281;48.878;9.394;2022-10-19T04:41:07;14.10;99.90
10468;DHT22;5281;48.878;9.394;2022-10-19T04:43:35;14.10;99.90
10468;DHT22;5281;48.878;9.394;2022-10-19T04:46:03;14.10;99.90
10468;DHT22;5281;48.878;9.394;2022-10-19T04:48:30;14.20;99.90
10468;DHT22;5281;48.878;9.394;2022-10-19T04:51:00;14.30;99.90
10468;DHT22;5281;48.878;9.394;2022-10-19T04:53:27;14.40;99.90
10468;DHT22;5281;48.878;9.394;2022-10-19T04:55:54;14.40;99.90
10468;DHT22;5281;48.878;9.394;2022-10-19T04:58:21;14.50;99.90
10468;DHT22;5281;48.878;9.394;2022-10-19T05:00:48;14.50;99.90
10468;DHT22;5281;48.878;9.394;2022-10-19T05:03:15;14.40;99.90
10468;DHT22;5281;48.878;9.394;2022-10-19T05:05:42;14.40;99.90
10468;DHT22;5281;48.878;9.394;2022-10-19T05:08:10;14.40;99.90
10468;DHT22;5281;48.878;9.394;2022-10-19T05:10:37;14.40;99.90
10468;DHT22;5281;48.878;9.394;2022-10-19T05:13:04;14.30;99.90
10468;DHT22;5281;48.878;9.394;2022-10-19T05:15:31;14.30;99.90
10468;DHT22;5281;48.878;9.394;2022-10-19T05:17:58;14.30;99.90
10468;DHT22;5281;48.878;9.394;2022-10-19T05:20:25;14.20;99.90
10468;DHT22;5281;48.878;9.394;2022-10-19T05:22:52;14.20;99.90
10468;DHT22;5281;48.878;9.394;2022-10-19T05:25:21;14.20;99.90
10468;DHT22;5281;48.878;9.394;2022-10-19T05:27:50;14.10;99.90
10468;DHT22;5281;48.878;9.394;2022-10-19T05:30:18;14.00;99.90
10468;DHT22;5281;48.878;9.394;2022-10-19T05:32:46;14.00;99.90
10468;DHT22;5281;48.878;9.394;2022-10-19T05:35:13;13.90;99.90
10468;DHT22;5281;48.878;9.394;2022-10-19T05:37:40;13.80;99.90
10468;DHT22;5281;48.878;9.394;2022-10-19T05:40:08;13.80;99.90
10468;DHT22;5281;48.878;9.394;2022-10-19T05:42:37;13.70;99.90
10468;DHT22;5281;48.878;9.394;2022-10-19T05:45:04;13.70;99.90
10468;DHT22;5281;48.878;9.394;2022-10-19T05:47:32;13.70;99.90
10468;DHT22;5281;48.878;9.394;2022-10-19T05:49:59;13.70;99.90
10468;DHT22;5281;48.878;9.394;2022-10-19T05:52:27;13.70;99.90
10468;DHT22;5281;48.878;9.394;2022-10-19T05:54:53;13.60;99.90
10468;DHT22;5281;48.878;9.394;2022-10-19T05:57:22;13.60;99.90
10468;DHT22;5281;48.878;9.394;2022-10-19T05:59:51;13.60;99.90
10468;DHT22;5281;48.878;9.394;2022-10-19T06:02:21;13.60;99.90
10468;DHT22;5281;48.878;9.394;2022-10-19T06:04:48;13.70;99.90
10468;DHT22;5281;48.878;9.394;2022-10-19T06:07:15;13.80;99.90
10468;DHT22;5281;48.878;9.394;2022-10-19T06:09:41;13.80;99.90
10468;DHT22;5281;48.878;9.394;2022-10-19T06:12:10;13.90;99.90
10468;DHT22;5281;48.878;9.394;2022-10-19T06:14:37;14.00;99.90
10468;DHT22;5281;48.878;9.394;2022-10-19T06:17:05;14.20;99.90
10468;DHT22;5281;48.878;9.394;2022-10-19T06:19:32;14.40;99.90
10468;DHT22;5281;48.878;9.394;2022-10-19T06:21:59;14.60;99.90
10468;DHT22;5281;48.878;9.394;2022-10-19T06:24:26;14.70;99.90
10468;DHT22;5281;48.878;9.394;2022-10-19T06:26:53;14.90;99.90
10468;DHT22;5281;48.878;9.394;2022-10-19T06:29:20;15.10;99.90
10468;DHT22;5281;48.878;9.394;2022-10-19T06:31:47;15.10;99.90
10468;DHT22;5281;48.878;9.394;2022-10-19T06:34:15;15.10;99.90
10468;DHT22;5281;48.878;9.394;2022-10-19T06:36:42;15.00;99.90
10468;DHT22;5281;48.878;9.394;2022-10-19T06:39:09;14.90;99.90
10468;DHT22;5281;48.878;9.394;2022-10-19T06:41:35;14.80;99.90
10468;DHT22;5281;48.878;9.394;2022-10-19T06:44:03;14.60;99.90
10468;DHT22;5281;48.878;9.394;2022-10-19T06:46:30;14.50;99.90
10468;DHT22;5281;48.878;9.394;2022-10-19T06:48:59;14.50;99.90
10468;DHT22;5281;48.878;9.394;2022-10-19T06:51:29;14.60;99.90
10468;DHT22;5281;48.878;9.394;2022-10-19T06:53:58;14.70;99.90
10468;DHT22;5281;48.878;9.394;2022-10-19T06:56:25;14.90;99.90
10468;DHT22;5281;48.878;9.394;2022-10-19T06:58:53;15.30;99.90
10468;DHT22;5281;48.878;9.394;2022-10-19T07:01:21;16.10;99.90
10468;DHT22;5281;48.878;9.394;2022-10-19T07:03:49;17.10;99.90
10468;DHT22;5281;48.878;9.394;2022-10-19T07:06:17;17.80;99.90
10468;DHT22;5281;48.878;9.394;2022-10-19T07:08:45;18.00;99.90
10468;DHT22;5281;48.878;9.394;2022-10-19T07:11:15;18.00;99.90
10468;DHT22;5281;48.878;9.394;2022-10-19T07:13:42;17.80;99.90
10468;DHT22;5281;48.878;9.394;2022-10-19T07:16:12;17.60;99.90
10468;DHT22;5281;48.878;9.394;2022-10-19T07:18:40;17.30;99.90
10468;DHT22;5281;48.878;9.394;2022-10-19T07:21:08;17.10;99.90
10468;DHT22;5281;48.878;9.394;2022-10-19T07:23:37;16.90;99.90
10468;DHT22;5281;48.878;9.394;2022-10-19T07:26:06;16.80;99.90
10468;DHT22;5281;48.878;9.394;2022-10-19T07:28:37;16.80;99.90
10468;DHT22;5281;48.878;9.394;2022-10-19T07:31:05;16.80;99.90
10468;DHT22;5281;48.878;9.394;2022-10-19T07:33:32;16.90;99.90
10468;DHT22;5281;48.878;9.394;2022-10-19T07:36:00;17.10;99.90
10468;DHT22;5281;48.878;9.394;2022-10-19T07:38:27;17.30;99.90
10468;DHT22;5281;48.878;9.394;2022-10-19T07:41:02;17.40;99.90
10468;DHT22;5281;48.878;9.394;2022-10-19T07:43:31;17.50;99.90
10468;DHT22;5281;48.878;9.394;2022-10-19T07:45:59;17.80;99.90
10468;DHT22;5281;48.878;9.394;2022-10-19T07:48:27;18.00;99.90
10468;DHT22;5281;48.878;9.394;2022-10-19T07:50:54;18.20;99.90
10468;DHT22;5281;48.878;9.394;2022-10-19T07:53:21;18.50;99.90
10468;DHT22;5281;48.878;9.394;2022-10-19T07:55:48;18.70;99.90
10468;DHT22;5281;48.878;9.394;2022-10-19T07:58:15;18.80;99.90
10468;DHT22;5281;48.878;9.394;2022-10-19T08:00:43;18.90;99.90
10468;DHT22;5281;48.878;9.394;2022-10-19T08:03:10;19.00;99.90
10468;DHT22;5281;48.878;9.394;2022-10-19T08:05:37;19.20;99.90
10468;DHT22;5281;48.878;9.394;2022-10-19T08:08:04;19.30;99.90
10468;DHT22;5281;48.878;9.394;2022-10-19T08:10:31;19.30;99.90
10468;DHT22;5281;48.878;9.394;2022-10-19T08:12:58;19.40;99.90
10468;DHT22;5281;48.878;9.394;2022-10-19T08:15:25;19.40;99.90
10468;DHT22;5281;48.878;9.394;2022-10-19T08:17:54;19.50;99.90
10468;DHT22;5281;48.878;9.394;2022-10-19T08:20:21;19.50;99.90
10468;DHT22;5281;48.878;9.394;2022-10-19T08:22:48;19.40;99.90
10468;DHT22;5281;48.878;9.394;2022-10-19T08:25:15;19.30;99.90
10468;DHT22;5281;48.878;9.394;2022-10-19T08:27:41;19.30;99.90
10468;DHT22;5281;48.878;9.394;2022-10-19T08:30:09;19.40;99.90
10468;DHT22;5281;48.878;9.394;2022-10-19T08:32:36;19.30;99.90
10468;DHT22;5281;48.878;9.394;2022-10-19T08:35:05;19.20;99.90
10468;DHT22;5281;48.878;9.394;2022-10-19T08:37:32;19.10;99.90
10468;DHT22;5281;48.878;9.394;2022-10-19T08:39:59;18.80;99.90
10468;DHT22;5281;48.878;9.394;2022-10-19T08:42:32;18.70;99.90
10468;DHT22;5281;48.878;9.394;2022-10-19T08:45:26;18.70;99.90
10468;DHT22;5281;48.878;9.394;2022-10-19T08:48:05;18.70;99.90
10468;DHT22;5281;48.878;9.394;2022-10-19T08:50:41;18.80;99.90
10468;DHT22;5281;48.878;9.394;2022-10-19T08:53:12;18.90;99.90
10468;DHT22;5281;48.878;9.394;2022-10-19T08:55:59;19.00;99.90
10468;DHT22;5281;48.878;9.394;2022-10-19T08:58:38;19.10;99.90
10468;DHT22;5281;48.878;9.394;2022-10-19T09:01:09;19.30;99.90
10468;DHT22;5281;48.878;9.394;2022-10-19T09:03:44;19.40;99.90
10468;DHT22;5281;48.878;9.394;2022-10-19T09:06:18;19.60;99.90
10468;DHT22;5281;48.878;9.394;2022-10-19T09:08:50;19.70;99.90
10468;DHT22;5281;48.878;9.394;2022-10-19T09:11:20;19.90;99.90
10468;DHT22;5281;48.878;9.394;2022-10-19T09:13:48;19.80;99.90
10468;DHT22;5281;48.878;9.394;2022-10-19T09:16:17;19.80;99.90
10468;DHT22;5281;48.878;9.394;2022-10-19T09:18:45;19.90;99.90
10468;DHT22;5281;48.878;9.394;2022-10-19T09:21:17;20.10;99.90
10468;DHT22;5281;48.878;9.394;2022-10-19T09:23:49;20.20;99.90
10468;DHT22;5281;48.878;9.394;2022-10-19T09:26:22;20.20;99.90
10468;DHT22;5281;48.878;9.394;2022-10-19T09:28:53;20.30;99.90
10468;DHT22;5281;48.878;9.394;2022-10-19T09:31:26;20.30;99.90
10468;DHT22;5281;48.878;9.394;2022-10-19T09:33:57;20.40;99.90
10468;DHT22;5281;48.878;9.394;2022-10-19T09:36:33;20.30;99.90
10468;DHT22;5281;48.878;9.394;2022-10-19T09:39:02;20.40;99.90
10468;DHT22;5281;48.878;9.394;2022-10-19T09:41:29;20.50;99.90
10468;DHT22;5281;48.878;9.394;2022-10-19T09:43:56;20.50;99.90
10468;DHT22;5281;48.878;9.394;2022-10-19T09:46:32;20.70;99.90
10468;DHT22;5281;48.878;9.394;2022-10-19T09:49:02;20.70;99.90
10468;DHT22;5281;48.878;9.394;2022-10-19T09:51:45;20.70;99.90
10468;DHT22;5281;48.878;9.394;2022-10-19T09:54:24;20.70;99.90
10468;DHT22;5281;48.878;9.394;2022-10-19T09:56:53;20.80;99.90
10468;DHT22;5281;48.878;9.394;2022-10-19T09:59:22;20.80;99.90
10468;DHT22;5281;48.878;9.394;2022-10-19T10:01:59;20.90;99.90
10468;DHT22;5281;48.878;9.394;2022-10-19T10:04:28;20.90;99.90
10468;DHT22;5281;48.878;9.394;2022-10-19T10:06:57;20.70;99.90
10468;DHT22;5281;48.878;9.394;2022-10-19T10:09:27;20.40;99.90
10468;DHT22;5281;48.878;9.394;2022-10-19T10:11:57;20.30;99.90
10468;DHT22;5281;48.878;9.394;2022-10-19T10:14:27;20.20;99.90
10468;DHT22;5281;48.878;9.394;2022-10-19T10:16:55;20.10;99.90
10468;DHT22;5281;48.878;9.394;2022-10-19T10:19:26;19.90;99.90
10468;DHT22;5281;48.878;9.394;2022-10-19T10:21:55;19.70;99.90
10468;DHT22;5281;48.878;9.394;2022-10-19T10:24:25;19.40;99.90
10468;DHT22;5281;48.878;9.394;2022-10-19T10:26:54;19.30;99.90
10468;DHT22;5281;48.878;9.394;2022-10-19T10:29:23;19.40;99.90
10468;DHT22;5281;48.878;9.394;2022-10-19T10:31:52;19.40;99.90
10468;DHT22;5281;48.878;9.394;2022-10-19T10:34:33;19.60;99.90
10468;DHT22;5281;48.878;9.394;2022-10-19T10:37:02;19.80;99.90
10468;DHT22;5281;48.878;9.394;2022-10-19T10:39:32;20.00;99.90
10468;DHT22;5281;48.878;9.394;2022-10-19T10:42:01;20.20;99.90
10468;DHT22;5281;48.878;9.394;2022-10-19T10:44:32;20.20;99.90
10468;DHT22;5281;48.878;9.394;2022-10-19T10:47:03;20.20;99.90
10468;DHT22;5281;48.878;9.394;2022-10-19T10:49:35;20.20;99.90
10468;DHT22;5281;48.878;9.394;2022-10-19T10:52:04;20.40;99.90
10468;DHT22;5281;48.878;9.394;2022-10-19T10:54:34;20.50;99.90
10468;DHT22;5281;48.878;9.394;2022-10-19T10:57:10;20.70;99.90
10468;DHT22;5281;48.878;9.394;2022-10-19T10:59:46;21.00;99.90
10468;DHT22;5281;48.878;9.394;2022-10-19T11:02:30;21.20;99.90
10468;DHT22;5281;48.878;9.394;2022-10-19T11:05:02;21.10;99.90
10468;DHT22;5281;48.878;9.394;2022-10-19T11:07:32;20.80;99.90
10468;DHT22;5281;48.878;9.394;2022-10-19T11:10:05;20.80;99.90
10468;DHT22;5281;48.878;9.394;2022-10-19T11:12:37;20.90;99.90
10468;DHT22;5281;48.878;9.394;2022-10-19T11:15:12;21.00;99.90
10468;DHT22;5281;48.878;9.394;2022-10-19T11:20:31;21.40;99.90
10468;DHT22;5281;48.878;9.394;2022-10-19T11:23:06;21.30;99.90
10468;DHT22;5281;48.878;9.394;2022-10-19T11:25:48;21.40;99.90
10468;DHT22;5281;48.878;9.394;2022-10-19T11:28:29;21.40;99.90
10468;DHT22;5281;48.878;9.394;2022-10-19T11:31:08;21.40;99.90
10468;DHT22;5281;48.878;9.394;2022-10-19T11:33:47;21.50;99.90
10468;DHT22;5281;48.878;9.394;2022-10-19T11:36:27;21.60;99.90
10468;DHT22;5281;48.878;9.394;2022-10-19T11:39:07;21.70;99.90
10468;DHT22;5281;48.878;9.394;2022-10-19T11:41:48;21.70;99.90
10468;DHT22;5281;48.878;9.394;2022-10-19T11:44:28;21.80;99.90
10468;DHT22;5281;48.878;9.394;2022-10-19T11:47:12;21.90;99.90
10468;DHT22;5281;48.878;9.394;2022-10-19T11:49:50;22.10;99.90
10468;DHT22;5281;48.878;9.394;2022-10-19T11:52:28;22.10;99.90
10468;DHT22;5281;48.878;9.394;2022-10-19T11:55:05;22.10;99.90
10468;DHT22;5281;48.878;9.394;2022-10-19T11:57:42;21.90;99.90
10468;DHT22;5281;48.878;9.394;2022-10-19T12:00:13;21.70;99.90
10468;DHT22;5281;48.878;9.394;2022-10-19T12:03:13;21.30;99.90
10468;DHT22;5281;48.878;9.394;2022-10-19T12:06:01;21.00;99.90
10468;DHT22;5281;48.878;9.394;2022-10-19T12:08:47;20.60;99.90
10468;DHT22;5281;48.878;9.394;2022-10-19T12:11:27;20.50;99.90
10468;DHT22;5281;48.878;9.394;2022-10-19T12:14:01;20.60;99.90
10468;DHT22;5281;48.878;9.394;2022-10-19T12:16:34;20.70;99.90
10468;DHT22;5281;48.878;9.394;2022-10-19T12:19:03;20.90;99.90
10468;DHT22;5281;48.878;9.394;2022-10-19T12:21:34;21.20;99.90
10468;DHT22;5281;48.878;9.394;2022-10-19T12:24:05;21.40;99.90
10468;DHT22;5281;48.878;9.394;2022-10-19T12:26:37;21.50;99.90
10468;DHT22;5281;48.878;9.394;2022-10-19T12:29:13;21.50;99.90
10468;DHT22;5281;48.878;9.394;2022-10-19T12:31:41;21.60;99.90
10468;DHT22;5281;48.878;9.394;2022-10-19T12:34:19;21.90;99.90
10468;DHT22;5281;48.878;9.394;2022-10-19T12:36:52;22.10;99.90
10468;DHT22;5281;48.878;9.394;2022-10-19T12:39:25;22.30;99.90
10468;DHT22;5281;48.878;9.394;2022-10-19T12:41:59;22.50;99.90
10468;DHT22;5281;48.878;9.394;2022-10-19T12:47:26;22.90;99.90
10468;DHT22;5281;48.878;9.394;2022-10-19T12:49:54;22.80;99.90
10468;DHT22;5281;48.878;9.394;2022-10-19T12:52:41;22.70;99.90
10468;DHT22;5281;48.878;9.394;2022-10-19T12:55:17;22.80;99.90
10468;DHT22;5281;48.878;9.394;2022-10-19T12:57:56;22.80;99.90
10468;DHT22;5281;48.878;9.394;2022-10-19T13:00:27;22.80;99.90
10468;DHT22;5281;48.878;9.394;2022-10-19T13:02:58;23.00;99.90
10468;DHT22;5281;48.878;9.394;2022-10-19T13:05:28;23.30;99.90
10468;DHT22;5281;48.878;9.394;2022-10-19T13:07:56;23.30;99.90
10468;DHT22;5281;48.878;9.394;2022-10-19T13:10:25;23.20;99.90
10468;DHT22;5281;48.878;9.394;2022-10-19T13:12:53;23.20;99.90
10468;DHT22;5281;48.878;9.394;2022-10-19T13:24:39;23.10;99.90
10468;DHT22;5281;48.878;9.394;2022-10-19T13:27:27;23.00;99.90
10468;DHT22;5281;48.878;9.394;2022-10-19T13:29:54;23.10;99.90
10468;DHT22;5281;48.878;9.394;2022-10-19T13:32:37;23.10;99.90
10468;DHT22;5281;48.878;9.394;2022-10-19T13:35:22;23.20;99.90
10468;DHT22;5281;48.878;9.394;2022-10-19T13:41:02;23.20;99.90
10468;DHT22;5281;48.878;9.394;2022-10-19T13:43:36;23.20;99.90
10468;DHT22;5281;48.878;9.394;2022-10-19T13:46:11;23.00;99.90
10468;DHT22;5281;48.878;9.394;2022-10-19T13:49:06;22.90;99.90
10468;DHT22;5281;48.878;9.394;2022-10-19T13:51:47;22.80;99.90
10468;DHT22;5281;48.878;9.394;2022-10-19T13:54:27;22.90;99.90
10468;DHT22;5281;48.878;9.394;2022-10-19T13:57:14;23.30;99.90
10468;DHT22;5281;48.878;9.394;2022-10-19T14:00:10;23.90;99.90
10468;DHT22;5281;48.878;9.394;2022-10-19T14:02:49;24.40;99.90
10468;DHT22;5281;48.878;9.394;2022-10-19T14:05:34;24.40;99.90
10468;DHT22;5281;48.878;9.394;2022-10-19T14:08:09;24.30;99.90
10468;DHT22;5281;48.878;9.394;2022-10-19T14:10:40;24.10;99.90
10468;DHT22;5281;48.878;9.394;2022-10-19T14:13:13;24.00;99.90
10468;DHT22;5281;48.878;9.394;2022-10-19T14:15:49;24.00;99.90
10468;DHT22;5281;48.878;9.394;2022-10-19T14:18:22;24.10;99.90
10468;DHT22;5281;48.878;9.394;2022-10-19T14:20:55;24.20;99.90
10468;DHT22;5281;48.878;9.394;2022-10-19T14:23:24;24.10;99.90
10468;DHT22;5281;48.878;9.394;2022-10-19T14:25:54;24.10;99.90
10468;DHT22;5281;48.878;9.394;2022-10-19T14:28:23;23.90;99.90
10468;DHT22;5281;48.878;9.394;2022-10-19T14:30:56;23.60;99.90
10468;DHT22;5281;48.878;9.394;2022-10-19T14:33:24;23.10;99.90
10468;DHT22;5281;48.878;9.394;2022-10-19T14:35:52;22.60;99.90
10468;DHT22;5281;48.878;9.394;2022-10-19T14:38:21;22.20;99.90
10468;DHT22;5281;48.878;9.394;2022-10-19T14:40:49;21.90;99.90
10468;DHT22;5281;48.878;9.394;2022-10-19T14:43:21;21.40;99.90
10468;DHT22;5281;48.878;9.394;2022-10-19T14:46:09;21.10;99.90
10468;DHT22;5281;48.878;9.394;2022-10-19T14:48:38;20.80;99.90
10468;DHT22;5281;48.878;9.394;2022-10-19T14:51:13;20.50;99.90
10468;DHT22;5281;48.878;9.394;2022-10-19T14:53:42;20.50;99.90
10468;DHT22;5281;48.878;9.394;2022-10-19T14:56:15;20.40;99.90
10468;DHT22;5281;48.878;9.394;2022-10-19T14:58:48;20.40;99.90
10468;DHT22;5281;48.878;9.394;2022-10-19T15:01:18;20.40;99.90
10468;DHT22;5281;48.878;9.394;2022-10-19T15:03:47;20.30;99.90
10468;DHT22;5281;48.878;9.394;2022-10-19T15:06:17;20.20;99.90
10468;DHT22;5281;48.878;9.394;2022-10-19T15:08:46;20.10;99.90
10468;DHT22;5281;48.878;9.394;2022-10-19T15:11:23;20.00;99.90
10468;DHT22;5281;48.878;9.394;2022-10-19T15:13:56;20.10;99.90
10468;DHT22;5281;48.878;9.394;2022-10-19T15:16:41;20.10;99.90
10468;DHT22;5281;48.878;9.394;2022-10-19T15:19:17;20.10;99.90
10468;DHT22;5281;48.878;9.394;2022-10-19T15:21:47;20.10;99.90
10468;DHT22;5281;48.878;9.394;2022-10-19T15:24:31;20.20;99.90
10468;DHT22;5281;48.878;9.394;2022-10-19T15:27:07;20.30;99.90
10468;DHT22;5281;48.878;9.394;2022-10-19T15:29:34;20.30;99.90
10468;DHT22;5281;48.878;9.394;2022-10-19T15:32:14;20.20;99.90
10468;DHT22;5281;48.878;9.394;2022-10-19T15:34:43;20.10;99.90
10468;DHT22;5281;48.878;9.394;2022-10-19T15:37:17;20.00;99.90
10468;DHT22;5281;48.878;9.394;2022-10-19T15:39:44;19.90;99.90
10468;DHT22;5281;48.878;9.394;2022-10-19T15:42:34;19.80;99.90
10468;DHT22;5281;48.878;9.394;2022-10-19T15:45:02;19.90;99.90
10468;DHT22;5281;48.878;9.394;2022-10-19T15:47:30;19.90;99.90
10468;DHT22;5281;48.878;9.394;2022-10-19T15:49:59;19.90;99.90
10468;DHT22;5281;48.878;9.394;2022-10-19T15:52:28;19.90;99.90
10468;DHT22;5281;48.878;9.394;2022-10-19T15:54:57;19.80;99.90
10468;DHT22;5281;48.878;9.394;2022-10-19T15:57:27;19.70;99.90
10468;DHT22;5281;48.878;9.394;2022-10-19T15:59:55;19.50;99.90
10468;DHT22;5281;48.878;9.394;2022-10-19T16:02:23;19.40;99.90
10468;DHT22;5281;48.878;9.394;2022-10-19T16:04:52;19.30;99.90
10468;DHT22;5281;48.878;9.394;2022-10-19T16:07:25;19.20;99.90
10468;DHT22;5281;48.878;9.394;2022-10-19T16:09:52;19.00;99.90
10468;DHT22;5281;48.878;9.394;2022-10-19T16:12:20;18.90;99.90
10468;DHT22;5281;48.878;9.394;2022-10-19T16:14:47;18.90;99.90
10468;DHT22;5281;48.878;9.394;2022-10-19T16:17:14;18.80;99.90
10468;DHT22;5281;48.878;9.394;2022-10-19T16:19:42;18.70;99.90
10468;DHT22;5281;48.878;9.394;2022-10-19T16:22:11;18.70;99.90
10468;DHT22;5281;48.878;9.394;2022-10-19T16:24:38;18.70;99.90
10468;DHT22;5281;48.878;9.394;2022-10-19T16:27:06;18.60;99.90
10468;DHT22;5281;48.878;9.394;2022-10-19T16:29:33;18.50;99.90
10468;DHT22;5281;48.878;9.394;2022-10-19T16:32:00;18.40;99.90